This is the latest recevied weather packets stored in our database for station/object WA2TQI. If no packets are shown the sender has not sent any weather packets the latest 1 day(s).
| Time | Temp. | Humidity | Pressure | Rain* | Wind** | Luminosity | Snow |
|---|---|---|---|---|---|---|---|
| 1777998086 | 27.78° C | 51% | 1011.9 hPa | 0 mm | 0.89 m/s, 306° | - | - |
| 1777997783 | 26.67° C | 52% | 1011.9 hPa | 0 mm | 1.34 m/s, 90° | - | - |
| 1777997480 | 26.67° C | 52% | 1012 hPa | 0 mm | 1.79 m/s, 168° | - | - |
| 1777997178 | 26.67° C | 52% | 1012 hPa | 0 mm | 2.68 m/s, 145° | - | - |
| 1777996875 | 26.67° C | 52% | 1012.1 hPa | 0 mm | 0.89 m/s, 175° | - | - |
| 1777996571 | 25.56° C | 55% | 1012.3 hPa | 0 mm | 2.24 m/s, 184° | - | - |
| 1777996268 | 26.67° C | 53% | 1012.4 hPa | 0 mm | 2.68 m/s, 215° | - | - |
| 1777995964 | 26.67° C | 52% | 1012.3 hPa | 0 mm | 2.68 m/s, 178° | - | - |
| 1777995660 | 26.11° C | 52% | 1012.5 hPa | 0 mm | 0.45 m/s, 195° | - | - |
| 1777995358 | 25.56° C | 54% | 1012.5 hPa | 0 mm | 0.45 m/s, 142° | - | - |
| 1777995055 | 26.11° C | 53% | 1012.6 hPa | 0 mm | 1.79 m/s, 176° | - | - |
| 1777994751 | 25.56° C | 53% | 1012.5 hPa | 0 mm | 0.89 m/s, 211° | - | - |
| 1777994448 | 25.56° C | 54% | 1012.5 hPa | 0 mm | 0.89 m/s, 117° | - | - |
| 1777994148 | 25° C | 55% | 1012.4 hPa | 0 mm | 0.45 m/s, 329° | - | - |
| 1777993846 | 25° C | 54% | 1012.4 hPa | 0 mm | 1.34 m/s, 188° | - | - |
| 1777993542 | 25° C | 55% | 1012.4 hPa | 0 mm | 0.45 m/s, 183° | - | - |
| 1777993238 | 26.11° C | 53% | 1012.5 hPa | 0 mm | 0.45 m/s, 177° | - | - |
| 1777992934 | 25° C | 54% | 1012.7 hPa | 0 mm | 0.45 m/s, 197° | - | - |
| 1777992633 | 24.44° C | 57% | 1012.6 hPa | 0 mm | 1.34 m/s, 215° | - | - |
| 1777992330 | 24.44° C | 56% | 1012.7 hPa | 0 mm | 2.24 m/s, 126° | - | - |
| 1777992027 | 24.44° C | 55% | 1012.9 hPa | 0 mm | 1.79 m/s, 242° | - | - |
| 1777991725 | 23.33° C | 57% | 1012.7 hPa | 0 mm | 1.79 m/s, 140° | - | - |
| 1777991422 | 23.33° C | 57% | 1012.9 hPa | 0 mm | 0.45 m/s, 242° | - | - |
| 1777991119 | 23.33° C | 58% | 1012.9 hPa | 0 mm | 1.79 m/s, 86° | - | - |
| 1777990816 | 23.89° C | 57% | 1012.9 hPa | 0 mm | 0.45 m/s, 74° | - | - |
* Rain latest hour (hover to see other rain measurements)
** Current wind speed in m/s (hover to see current wind gust speed)